createdAt,value
2019-05-20T00:00:31.159Z,99878.16
2019-05-20T00:03:01.824Z,99879.10
2019-05-20T00:05:32.407Z,99873.20
2019-05-20T00:08:03.211Z,99879.72
2019-05-20T00:10:33.772Z,99877.73
2019-05-20T00:13:04.335Z,99885.31
2019-05-20T00:15:35.023Z,99886.37
2019-05-20T00:18:05.589Z,99885.01
2019-05-20T00:20:36.161Z,99876.70
2019-05-20T00:23:06.733Z,99877.44
2019-05-20T00:25:37.275Z,99867.76
2019-05-20T00:28:07.825Z,99868.59
2019-05-20T00:30:38.413Z,99873.53
2019-05-20T00:33:09.117Z,99872.58
2019-05-20T00:35:39.720Z,99870.80
2019-05-20T00:38:10.298Z,99860.28
2019-05-20T00:40:40.851Z,99857.34
2019-05-20T00:43:12.383Z,99848.31
2019-05-20T00:45:42.959Z,99854.94
2019-05-20T00:48:13.520Z,99851.57
2019-05-20T00:50:44.095Z,99850.09
2019-05-20T00:53:14.650Z,99861.56
2019-05-20T00:55:45.359Z,99861.67
2019-05-20T00:58:16.017Z,99863.03
2019-05-20T01:00:46.645Z,99854.09
2019-05-20T01:03:18.274Z,99849.16
2019-05-20T01:05:48.933Z,99848.21
2019-05-20T01:08:19.502Z,99845.79
2019-05-20T01:10:50.066Z,99856.09
2019-05-20T01:13:22.034Z,99855.25
2019-05-20T01:15:52.615Z,99851.78
2019-05-20T01:18:23.174Z,99847.26
2019-05-20T01:20:56.511Z,99853.97
2019-05-20T01:23:27.102Z,99844.73
2019-05-20T01:25:58.081Z,99840.95
2019-05-20T01:28:28.662Z,99837.48
2019-05-20T01:30:59.245Z,99840.42
2019-05-20T01:33:29.825Z,99844.84
2019-05-20T01:36:01.837Z,99826.75
2019-05-20T01:38:33.453Z,99832.53
2019-05-20T01:41:04.013Z,99833.25
2019-05-20T01:43:34.588Z,99830.83
2019-05-20T01:46:06.236Z,99826.37
2019-05-20T01:48:36.814Z,99821.88
2019-05-20T01:51:07.549Z,99814.62
2019-05-20T01:53:38.134Z,99818.31
2019-05-20T01:56:08.707Z,99814.42
2019-05-20T01:58:39.814Z,99813.70
2019-05-20T02:01:10.507Z,99811.48
2019-05-20T02:03:41.071Z,99817.70
2019-05-20T02:06:11.634Z,99821.47
2019-05-20T02:08:42.200Z,99815.42
2019-05-20T02:11:12.779Z,99803.53
2019-05-20T02:13:44.993Z,99797.42
2019-05-20T02:16:16.072Z,99802.48
2019-05-20T02:18:46.927Z,99797.05
2019-05-20T02:21:17.605Z,99800.09
2019-05-20T02:23:48.246Z,99799.95
2019-05-20T02:26:18.878Z,99795.13
2019-05-20T02:28:49.454Z,99791.55
2019-05-20T02:31:20.038Z,99796.72
2019-05-20T02:33:52.757Z,99803.67
2019-05-20T02:36:22.894Z,99800.43
2019-05-20T02:38:53.496Z,99808.84
2019-05-20T02:41:24.055Z,99797.09
2019-05-20T02:43:54.674Z,99790.89
2019-05-20T02:46:25.411Z,99801.51
2019-05-20T02:48:56.062Z,99793.42
2019-05-20T02:51:32.798Z,99794.05
2019-05-20T02:54:03.562Z,99792.90
2019-05-20T02:56:34.159Z,99790.26
2019-05-20T02:59:05.383Z,99791.41
2019-05-20T03:01:35.927Z,99785.63
2019-05-20T03:04:12.018Z,99785.61
2019-05-20T03:06:38.947Z,99786.75
2019-05-20T03:09:12.178Z,99793.59
2019-05-20T03:11:42.088Z,99789.09
2019-05-20T03:14:12.653Z,99786.77
2019-05-20T03:16:43.225Z,99795.80
2019-05-20T03:19:13.910Z,99799.92
2019-05-20T03:21:44.676Z,99801.09
2019-05-20T03:24:15.249Z,99794.16
2019-05-20T03:26:45.965Z,99790.27
2019-05-20T03:29:16.589Z,99784.80
2019-05-20T03:31:47.199Z,99782.17
2019-05-20T03:34:42.392Z,99783.62
2019-05-20T03:36:50.176Z,99774.81
2019-05-20T03:39:20.750Z,99778.19
2019-05-20T03:41:51.338Z,99779.03
2019-05-20T03:44:21.912Z,99774.09
2019-05-20T03:46:52.496Z,99766.21
2019-05-20T03:49:23.071Z,99765.89
2019-05-20T03:51:53.660Z,99764.11
2019-05-20T03:54:24.256Z,99766.63
2019-05-20T03:56:54.914Z,99757.27
2019-05-20T03:59:25.537Z,99761.77
2019-05-20T04:01:56.077Z,99764.39
2019-05-20T04:04:26.656Z,99755.97
2019-05-20T04:06:57.239Z,99759.52
2019-05-20T04:09:28.047Z,99758.70
2019-05-20T04:11:59.022Z,99753.62
2019-05-20T04:14:29.593Z,99747.63
2019-05-20T04:17:00.188Z,99750.02
2019-05-20T04:19:30.893Z,99737.88
2019-05-20T04:22:01.562Z,99740.11
2019-05-20T04:24:32.333Z,99746.30
2019-05-20T04:27:02.944Z,99750.28
2019-05-20T04:29:33.641Z,99753.62
2019-05-20T04:32:04.248Z,99751.16
2019-05-20T04:34:34.822Z,99752.97
2019-05-20T04:37:05.403Z,99748.80
2019-05-20T04:39:35.968Z,99745.10
2019-05-20T04:42:07.183Z,99752.37
2019-05-20T04:44:38.018Z,99750.80
2019-05-20T04:47:08.569Z,99745.18
2019-05-20T04:49:39.149Z,99752.20
2019-05-20T04:52:09.729Z,99750.80
2019-05-20T04:54:40.317Z,99748.63
2019-05-20T04:57:11.153Z,99741.50
2019-05-20T04:59:41.726Z,99742.14
2019-05-20T05:02:12.305Z,99740.11
2019-05-20T05:04:43.055Z,99737.84
2019-05-20T05:07:13.772Z,99746.64
2019-05-20T05:09:44.481Z,99742.70
2019-05-20T05:12:16.742Z,99743.64
2019-05-20T05:14:47.940Z,99747.69
2019-05-20T05:17:18.680Z,99744.72
2019-05-20T05:19:49.389Z,99742.27
2019-05-20T05:22:20.578Z,99744.55
2019-05-20T05:24:51.716Z,99743.31
2019-05-20T05:27:23.456Z,99747.71
2019-05-20T05:29:54.779Z,99749.78
2019-05-20T05:32:44.687Z,99746.72
2019-05-20T05:35:17.319Z,99748.96
2019-05-20T05:37:48.969Z,99734.91
2019-05-20T05:40:23.420Z,99729.36
2019-05-20T05:42:54.701Z,99716.52
2019-05-20T05:45:35.342Z,99723.36
2019-05-20T05:48:06.202Z,99725.80
2019-05-20T05:50:36.838Z,99719.59
2019-05-20T05:53:07.413Z,99725.66
2019-05-20T05:55:37.993Z,99719.98
2019-05-20T05:58:08.996Z,99716.25
2019-05-20T06:00:40.305Z,99717.88
2019-05-20T06:03:10.965Z,99713.59
2019-05-20T06:05:41.579Z,99708.05
2019-05-20T06:08:12.240Z,99703.19
2019-05-20T06:10:42.865Z,99705.12
2019-05-20T06:13:13.643Z,99692.62
2019-05-20T06:15:44.324Z,99696.52
2019-05-20T06:18:14.932Z,99696.02
2019-05-20T06:20:45.607Z,99697.89
2019-05-20T06:23:16.711Z,99698.43
2019-05-20T06:25:47.291Z,99697.67
2019-05-20T06:28:17.939Z,99700.23
2019-05-20T06:30:48.601Z,99689.03
2019-05-20T06:33:19.203Z,99684.31
2019-05-20T06:35:49.858Z,99678.83
2019-05-20T06:38:34.428Z,99669.44
2019-05-20T06:41:07.066Z,99665.42
2019-05-20T06:43:37.647Z,99672.14
2019-05-20T06:46:08.253Z,99672.17
2019-05-20T06:48:38.916Z,99674.67
2019-05-20T06:51:09.525Z,99667.06
2019-05-20T06:53:41.199Z,99662.64
2019-05-20T06:56:11.884Z,99660.15
2019-05-20T06:58:42.462Z,99660.60
2019-05-20T07:01:13.048Z,99660.00
2019-05-20T07:03:43.827Z,99671.89
2019-05-20T07:06:14.393Z,99666.89
2019-05-20T07:08:44.980Z,99664.39
2019-05-20T07:11:15.575Z,99658.69
2019-05-20T07:13:46.151Z,99661.50
2019-05-20T07:16:16.728Z,99666.77
2019-05-20T07:18:48.672Z,99653.11
2019-05-20T07:21:19.245Z,99656.86
2019-05-20T07:23:52.410Z,99652.97
2019-05-20T07:26:22.203Z,99652.75
2019-05-20T07:28:53.721Z,99653.76
2019-05-20T07:31:24.341Z,99647.81
2019-05-20T07:33:54.976Z,99648.40
2019-05-20T07:36:25.778Z,99643.23
2019-05-20T07:38:56.534Z,99646.78
2019-05-20T07:41:27.125Z,99648.89
2019-05-20T07:43:57.721Z,99645.30
2019-05-20T07:46:28.542Z,99642.25
2019-05-20T07:49:00.051Z,99645.27
2019-05-20T07:51:31.089Z,99638.31
2019-05-20T07:54:03.154Z,99638.49
2019-05-20T07:56:37.350Z,99638.75
2019-05-20T07:59:11.615Z,99642.74
2019-05-20T08:01:43.394Z,99647.52
2019-05-20T08:04:14.246Z,99636.56
2019-05-20T08:06:45.873Z,99642.84
2019-05-20T08:09:16.988Z,99640.77
2019-05-20T08:11:47.660Z,99642.44
2019-05-20T08:14:18.765Z,99645.51
2019-05-20T08:16:49.650Z,99642.06
2019-05-20T08:19:20.454Z,99634.29
2019-05-20T08:21:51.439Z,99638.66
2019-05-20T08:24:23.556Z,99637.63
2019-05-20T08:26:54.252Z,99641.15
2019-05-20T08:29:25.215Z,99640.43
2019-05-20T08:31:56.597Z,99628.31
2019-05-20T08:34:27.551Z,99621.91
2019-05-20T08:36:58.338Z,99622.04
2019-05-20T08:39:29.280Z,99621.41
2019-05-20T08:42:00.243Z,99628.52
2019-05-20T08:44:31.341Z,99635.82
2019-05-20T08:47:02.168Z,99631.73
2019-05-20T08:49:32.953Z,99639.86
2019-05-20T08:52:03.606Z,99628.58
2019-05-20T08:54:34.460Z,99628.55
2019-05-20T08:57:05.134Z,99630.27
2019-05-20T08:59:35.747Z,99641.64
2019-05-20T09:02:06.383Z,99640.80
2019-05-20T09:04:37.181Z,99636.30
2019-05-20T09:07:08.722Z,99641.91
2019-05-20T09:09:39.475Z,99642.47
2019-05-20T09:12:10.090Z,99640.49
2019-05-20T09:14:40.808Z,99625.44
2019-05-20T09:17:13.155Z,99625.43
2019-05-20T09:19:46.830Z,99616.73
2019-05-20T09:22:15.998Z,99617.80
2019-05-20T09:24:46.724Z,99617.05
2019-05-20T09:27:18.625Z,99610.47
2019-05-20T09:29:49.502Z,99607.88
2019-05-20T09:32:20.299Z,99607.38
2019-05-20T09:34:50.948Z,99614.21
2019-05-20T09:37:21.671Z,99610.77
2019-05-20T09:39:52.456Z,99610.54
2019-05-20T09:42:24.234Z,99612.85
2019-05-20T09:44:54.808Z,99606.46
2019-05-20T09:47:25.501Z,99613.88
2019-05-20T09:49:56.079Z,99620.00
2019-05-20T09:52:26.741Z,99611.63
2019-05-20T09:54:57.432Z,99606.79
2019-05-20T09:57:29.330Z,99626.87
2019-05-20T09:59:59.870Z,99624.16
2019-05-20T10:02:34.522Z,99623.97
2019-05-20T10:05:03.220Z,99614.94
2019-05-20T10:07:34.286Z,99617.48
2019-05-20T10:10:08.033Z,99624.58
2019-05-20T10:12:46.230Z,99619.41
2019-05-20T10:15:11.171Z,99615.09
2019-05-20T10:17:41.742Z,99623.06
2019-05-20T10:20:12.863Z,99621.21
2019-05-20T10:22:43.556Z,99616.96
2019-05-20T10:25:14.455Z,99616.94
2019-05-20T10:27:45.061Z,99612.61
2019-05-20T10:30:17.154Z,99613.64
2019-05-20T10:32:47.743Z,99605.48
2019-05-20T10:35:18.376Z,99614.20
2019-05-20T10:37:48.956Z,99614.19
2019-05-20T10:40:19.612Z,99615.45
2019-05-20T10:42:50.644Z,99614.05
2019-05-20T10:45:21.281Z,99601.91
2019-05-20T10:47:51.879Z,99597.54
2019-05-20T10:50:22.962Z,99584.51
2019-05-20T10:52:53.555Z,99574.84
2019-05-20T10:55:24.166Z,99581.27
2019-05-20T10:57:55.765Z,99594.94
2019-05-20T11:00:29.136Z,99607.98
2019-05-20T11:02:59.720Z,99619.30
2019-05-20T11:05:30.293Z,99630.77
2019-05-20T11:08:00.876Z,99622.01
2019-05-20T11:10:31.558Z,99616.95
2019-05-20T11:13:02.294Z,99622.50
2019-05-20T11:15:32.925Z,99624.39
2019-05-20T11:18:03.629Z,99627.35
2019-05-20T11:20:34.345Z,99626.27
2019-05-20T11:23:04.953Z,99638.66
2019-05-20T11:25:35.711Z,99629.52
2019-05-20T11:28:06.284Z,99628.13
2019-05-20T11:30:36.892Z,99629.48
2019-05-20T11:33:07.587Z,99635.94
2019-05-20T11:35:38.178Z,99628.70
2019-05-20T11:38:08.780Z,99634.66
2019-05-20T11:40:40.287Z,99625.95
2019-05-20T11:43:10.866Z,99635.83
2019-05-20T11:45:44.764Z,99626.17
2019-05-20T11:48:15.338Z,99614.83
2019-05-20T11:50:45.912Z,99609.01
2019-05-20T11:53:16.566Z,99608.25
2019-05-20T11:55:47.218Z,99611.41
2019-05-20T11:58:18.115Z,99620.30
2019-05-20T12:00:48.861Z,99622.09
2019-05-20T12:03:20.640Z,99602.19
2019-05-20T12:05:51.339Z,99599.09
2019-05-20T12:08:21.909Z,99601.03
2019-05-20T12:10:52.497Z,99606.56
2019-05-20T12:13:23.081Z,99603.85
2019-05-20T12:15:53.847Z,99606.91
2019-05-20T12:18:24.519Z,99605.70
2019-05-20T12:20:55.100Z,99610.71
2019-05-20T12:23:25.684Z,99607.94
2019-05-20T12:25:56.272Z,99610.23
2019-05-20T12:28:26.958Z,99598.50
2019-05-20T12:30:57.564Z,99593.17
2019-05-20T12:33:28.181Z,99594.92
2019-05-20T12:35:58.767Z,99603.85
2019-05-20T12:38:30.065Z,99597.14
2019-05-20T12:41:00.703Z,99587.16
2019-05-20T12:43:31.319Z,99585.48
2019-05-20T12:46:02.013Z,99582.22
2019-05-20T12:48:33.762Z,99581.84
2019-05-20T12:51:04.366Z,99595.13
2019-05-20T12:53:35.092Z,99588.54
2019-05-20T12:56:05.655Z,99596.00
2019-05-20T12:58:36.251Z,99600.80
2019-05-20T13:01:06.960Z,99611.34
2019-05-20T13:03:37.603Z,99603.30
2019-05-20T13:06:09.690Z,99596.08
2019-05-20T13:08:40.271Z,99579.86
2019-05-20T13:11:10.856Z,99583.25
2019-05-20T13:13:41.436Z,99583.27
2019-05-20T13:16:12.021Z,99578.33
2019-05-20T13:18:55.039Z,99584.13
2019-05-20T13:21:14.898Z,99587.98
2019-05-20T13:23:48.775Z,99568.63
2019-05-20T13:26:18.101Z,99575.55
2019-05-20T13:28:50.924Z,99563.33
2019-05-20T13:31:21.996Z,99566.67
2019-05-20T13:33:53.757Z,99564.45
2019-05-20T13:36:24.334Z,99569.11
2019-05-20T13:38:55.206Z,99566.66
2019-05-20T13:41:26.015Z,99566.37
2019-05-20T13:43:56.600Z,99569.73
2019-05-20T13:46:27.578Z,99571.63
2019-05-20T13:48:58.274Z,99562.16
2019-05-20T13:51:29.100Z,99567.45
2019-05-20T13:53:59.822Z,99564.67
2019-05-20T13:56:30.440Z,99556.29
2019-05-20T13:59:01.015Z,99570.16
2019-05-20T14:01:31.624Z,99566.32
2019-05-20T14:04:02.260Z,99566.30
2019-05-20T14:06:32.843Z,99579.34
2019-05-20T14:09:07.596Z,99571.64
2019-05-20T14:11:38.054Z,99565.54
2019-05-20T14:14:08.725Z,99575.56
2019-05-20T14:16:39.501Z,99559.41
2019-05-20T14:19:10.282Z,99570.69
2019-05-20T14:21:41.080Z,99571.78
2019-05-20T14:24:12.052Z,99566.52
2019-05-20T14:26:43.841Z,99566.19
2019-05-20T14:29:14.824Z,99559.05
2019-05-20T14:31:45.543Z,99559.88
2019-05-20T14:34:16.129Z,99568.11
2019-05-20T14:36:46.710Z,99572.80
2019-05-20T14:39:18.173Z,99578.33
2019-05-20T14:41:48.968Z,99585.22
2019-05-20T14:44:19.507Z,99595.98
2019-05-20T14:46:50.394Z,99602.16
2019-05-20T14:49:20.948Z,99600.27
2019-05-20T14:51:51.549Z,99616.13
2019-05-20T14:54:22.206Z,99622.69
2019-05-20T14:56:52.808Z,99634.84
2019-05-20T14:59:23.709Z,99640.52
2019-05-20T15:01:54.406Z,99648.19
2019-05-20T15:04:25.005Z,99654.17
2019-05-20T15:06:55.618Z,99659.23
2019-05-20T15:09:26.648Z,99669.27
2019-05-20T15:11:57.319Z,99666.37
2019-05-20T15:17:06.115Z,99661.34
2019-05-20T15:19:37.152Z,99656.44
2019-05-20T15:22:07.804Z,99655.73
2019-05-20T15:24:38.465Z,99662.25
2019-05-20T15:27:09.043Z,99658.59
2019-05-20T15:29:39.937Z,99657.80
2019-05-20T15:32:10.608Z,99656.19
2019-05-20T15:34:41.189Z,99663.65
2019-05-20T15:37:11.833Z,99659.52
2019-05-20T15:39:42.403Z,99658.84
2019-05-20T15:42:13.370Z,99658.83
2019-05-20T15:44:43.962Z,99656.20
2019-05-20T15:47:18.136Z,99654.66
2019-05-20T15:49:46.827Z,99652.84
2019-05-20T15:52:17.404Z,99654.71
2019-05-20T15:54:47.996Z,99651.11
2019-05-20T15:57:18.583Z,99653.22
2019-05-20T15:59:49.158Z,99651.88
2019-05-20T16:02:19.778Z,99651.97
2019-05-20T16:04:50.447Z,99655.96
2019-05-20T16:07:21.245Z,99644.80
2019-05-20T16:09:53.406Z,99650.47
2019-05-20T16:12:23.920Z,99650.32
2019-05-20T16:14:54.966Z,99657.10
2019-05-20T16:17:25.665Z,99667.61
2019-05-20T16:19:56.269Z,99669.98
2019-05-20T16:22:26.859Z,99676.38
2019-05-20T16:24:59.199Z,99679.23
2019-05-20T16:27:32.775Z,99673.61
2019-05-20T16:30:06.993Z,99668.09
2019-05-20T16:32:36.414Z,99673.67
2019-05-20T16:35:07.644Z,99670.05
2019-05-20T16:37:39.922Z,99672.81
2019-05-20T16:40:11.512Z,99679.10
2019-05-20T16:42:42.838Z,99680.22
2019-05-20T16:45:15.050Z,99683.17
2019-05-20T16:47:45.638Z,99693.72
2019-05-20T16:50:16.873Z,99692.30
2019-05-20T16:52:47.489Z,99690.91
2019-05-20T16:55:18.196Z,99686.00
2019-05-20T16:57:49.129Z,99683.02
2019-05-20T17:00:31.555Z,99685.84
2019-05-20T17:02:52.858Z,99683.47
2019-05-20T17:05:23.410Z,99687.70
2019-05-20T17:07:53.980Z,99683.59
2019-05-20T17:10:24.539Z,99678.12
2019-05-20T17:12:55.606Z,99675.80
2019-05-20T17:15:26.221Z,99678.69
2019-05-20T17:17:57.003Z,99683.89
2019-05-20T17:20:27.594Z,99683.34
2019-05-20T17:22:58.678Z,99687.30
2019-05-20T17:25:29.446Z,99689.19
2019-05-20T17:28:01.000Z,99689.37
2019-05-20T17:30:44.488Z,99691.08
2019-05-20T17:33:04.227Z,99695.19
2019-05-20T17:35:34.827Z,99685.27
2019-05-20T17:38:05.952Z,99688.70
2019-05-20T17:40:38.274Z,99677.36
2019-05-20T17:43:09.943Z,99689.65
2019-05-20T17:45:40.534Z,99688.13
2019-05-20T17:48:11.494Z,99689.17
2019-05-20T17:50:43.447Z,99686.96
2019-05-20T17:53:14.008Z,99685.25
2019-05-20T17:55:44.924Z,99682.98
2019-05-20T17:58:17.137Z,99687.41
2019-05-20T18:00:47.975Z,99696.91
2019-05-20T18:03:18.557Z,99701.72
2019-05-20T18:05:49.163Z,99708.92
2019-05-20T18:08:20.843Z,99707.91
2019-05-20T18:10:51.458Z,99708.75
2019-05-20T18:13:22.141Z,99700.84
2019-05-20T18:15:52.736Z,99697.44
2019-05-20T18:18:23.655Z,99706.64
2019-05-20T18:20:56.488Z,99706.00
2019-05-20T18:23:26.470Z,99711.76
2019-05-20T18:25:57.060Z,99719.02
2019-05-20T18:28:28.227Z,99719.29
2019-05-20T18:31:00.224Z,99716.97
2019-05-20T18:33:30.900Z,99720.98
2019-05-20T18:36:03.590Z,99726.05
2019-05-20T18:38:34.186Z,99727.80
2019-05-20T18:41:04.913Z,99727.68
2019-05-20T18:43:36.332Z,99724.63
2019-05-20T18:46:07.766Z,99724.63
2019-05-20T18:48:38.425Z,99729.53
2019-05-20T18:51:09.297Z,99726.37
2019-05-20T18:53:40.453Z,99729.59
2019-05-20T18:56:11.160Z,99732.55
2019-05-20T18:58:41.895Z,99758.56
2019-05-20T19:01:14.332Z,99737.61
2019-05-20T19:03:45.157Z,99740.64
2019-05-20T19:06:15.800Z,99740.31
2019-05-20T19:08:46.569Z,99738.95
2019-05-20T19:11:17.188Z,99738.95
2019-05-20T19:13:47.881Z,99737.16
2019-05-20T19:16:18.957Z,99744.88
2019-05-20T19:18:49.723Z,99741.89
2019-05-20T19:21:21.298Z,99741.28
2019-05-20T19:23:51.945Z,99737.94
2019-05-20T19:26:25.500Z,99741.95
2019-05-20T19:28:58.351Z,99740.94
2019-05-20T19:31:29.383Z,99748.19
2019-05-20T19:34:01.967Z,99745.15
2019-05-20T19:36:35.669Z,99744.93
2019-05-20T19:39:08.389Z,99740.75
2019-05-20T19:41:40.741Z,99742.87
2019-05-20T19:44:13.498Z,99746.02
2019-05-20T19:46:46.482Z,99736.94
2019-05-20T19:49:17.555Z,99747.61
2019-05-20T19:51:49.436Z,99748.22
2019-05-20T19:54:20.368Z,99751.73
2019-05-20T19:56:51.239Z,99746.47
2019-05-20T19:59:24.523Z,99747.30
2019-05-20T20:01:55.358Z,99744.34
2019-05-20T20:04:26.021Z,99740.75
2019-05-20T20:06:56.723Z,99745.33
2019-05-20T20:09:27.911Z,99744.33
2019-05-20T20:11:58.568Z,99748.00
2019-05-20T20:14:30.483Z,99747.27
2019-05-20T20:17:01.187Z,99749.41
2019-05-20T20:19:31.884Z,99750.47
2019-05-20T20:22:02.548Z,99751.69
2019-05-20T20:24:33.264Z,99745.27
2019-05-20T20:27:03.945Z,99744.73
2019-05-20T20:29:34.604Z,99753.50
2019-05-20T20:32:05.179Z,99746.25
2019-05-20T20:34:35.874Z,99745.86
2019-05-20T20:37:06.523Z,99744.16
2019-05-20T20:39:37.576Z,99739.27
2019-05-20T20:42:08.330Z,99735.44
2019-05-20T20:44:38.936Z,99748.05
2019-05-20T20:47:09.651Z,99747.29
2019-05-20T20:49:40.777Z,99747.59
2019-05-20T20:52:11.522Z,99750.73
2019-05-20T20:54:42.100Z,99744.89
2019-05-20T20:57:12.812Z,99741.56
2019-05-20T20:59:43.463Z,99745.84
2019-05-20T21:02:14.176Z,99745.95
2019-05-20T21:04:44.867Z,99749.14
2019-05-20T21:07:15.538Z,99740.52
2019-05-20T21:09:46.097Z,99741.53
2019-05-20T21:12:16.668Z,99739.58
2019-05-20T21:14:47.230Z,99747.71
2019-05-20T21:17:17.802Z,99747.29
2019-05-20T21:19:48.357Z,99743.59
2019-05-20T21:22:18.987Z,99737.49
2019-05-20T21:24:51.153Z,99744.21
2019-05-20T21:27:21.718Z,99745.93
2019-05-20T21:29:52.450Z,99748.80
2019-05-20T21:32:22.999Z,99744.61
2019-05-20T21:34:53.584Z,99745.66
2019-05-20T21:37:24.164Z,99739.12
2019-05-20T21:39:54.792Z,99744.73
2019-05-20T21:42:25.352Z,99742.44
2019-05-20T21:44:55.926Z,99742.22
2019-05-20T21:47:26.506Z,99735.91
2019-05-20T21:49:57.062Z,99737.48
2019-05-20T21:52:27.640Z,99727.37
2019-05-20T21:54:58.221Z,99725.83
2019-05-20T21:57:28.851Z,99723.03
2019-05-20T21:59:59.458Z,99727.47
2019-05-20T22:02:30.129Z,99722.70
2019-05-20T22:05:00.669Z,99724.88
2019-05-20T22:07:31.513Z,99732.59
2019-05-20T22:10:02.191Z,99733.15
2019-05-20T22:12:34.403Z,99729.66
2019-05-20T22:15:07.022Z,99723.23
2019-05-20T22:17:37.616Z,99726.69
2019-05-20T22:20:08.326Z,99725.88
2019-05-20T22:22:48.227Z,99722.52
2019-05-20T22:25:18.854Z,99724.19
2019-05-20T22:27:49.500Z,99730.75
2019-05-20T22:30:20.106Z,99722.85
2019-05-20T22:32:50.851Z,99724.24
2019-05-20T22:35:21.430Z,99728.13
2019-05-20T22:37:52.165Z,99722.78
2019-05-20T22:40:22.803Z,99724.05
2019-05-20T22:42:53.406Z,99721.41
2019-05-20T22:45:24.047Z,99716.34
2019-05-20T22:47:54.731Z,99724.34
2019-05-20T22:50:25.304Z,99720.88
2019-05-20T22:52:56.194Z,99726.26
2019-05-20T22:55:26.714Z,99728.17
2019-05-20T22:57:57.434Z,99729.64
2019-05-20T23:00:28.017Z,99734.28
2019-05-20T23:02:59.966Z,99734.50
2019-05-20T23:05:30.754Z,99743.11
2019-05-20T23:08:01.410Z,99741.39
2019-05-20T23:10:32.074Z,99741.72
2019-05-20T23:13:02.929Z,99744.88
2019-05-20T23:15:33.636Z,99743.72
2019-05-20T23:18:04.295Z,99743.30
2019-05-20T23:20:34.972Z,99752.84
2019-05-20T23:23:05.717Z,99742.64
2019-05-20T23:25:36.484Z,99750.41
2019-05-20T23:28:07.279Z,99747.45
2019-05-20T23:30:38.012Z,99746.70
2019-05-20T23:33:08.733Z,99753.88
2019-05-20T23:35:39.394Z,99756.70
2019-05-20T23:38:09.932Z,99750.48
2019-05-20T23:40:40.493Z,99752.23
2019-05-20T23:43:11.169Z,99749.30
2019-05-20T23:45:41.965Z,99749.42
2019-05-20T23:48:13.509Z,99747.11
2019-05-20T23:50:44.067Z,99757.91
2019-05-20T23:53:14.624Z,99760.66
2019-05-20T23:55:45.657Z,99761.64
2019-05-20T23:58:16.214Z,99751.77
